Time;durP1;ratioP1;P1;durP2;ratioP2;P2;SDS_P1;SDS_P2;PMS_P1;PMS_P2;Temp;Humidity;BMP_temperature;BMP_pressure;BME280_temperature;BME280_humidity;BME280_pressure;Samples;Min_cycle;Max_cycle;Signal;HPM_P1;HPM_P2
2023/01/09 00:01:36;;;;;;;17.13;11.20;;;7.60;46.30;;;;;;5063592;28;20477;-74
2023/01/09 00:04:03;;;;;;;14.90;11.43;;;7.60;46.40;;;;;;5063903;28;20454;-74
2023/01/09 00:06:30;;;;;;;12.83;8.30;;;7.60;46.10;;;;;;5065534;28;20544;-75
2023/01/09 00:08:57;;;;;;;11.53;8.43;;;7.60;46.20;;;;;;5066009;28;20453;-74
2023/01/09 00:11:24;;;;;;;11.80;8.20;;;7.60;46.30;;;;;;5064907;28;20481;-74
2023/01/09 00:13:51;;;;;;;10.00;5.70;;;7.70;46.30;;;;;;5064403;28;20469;-74
2023/01/09 00:16:17;;;;;;;8.87;5.97;;;7.70;46.30;;;;;;5063311;28;20458;-74
2023/01/09 00:18:46;;;;;;;9.50;6.17;;;7.80;46.20;;;;;;5063804;28;20464;-73
2023/01/09 00:21:13;;;;;;;9.47;5.60;;;7.80;46.20;;;;;;5065582;28;20486;-74
2023/01/09 00:23:40;;;;;;;7.70;4.53;;;7.80;46.20;;;;;;5059968;28;20988;-74
2023/01/09 00:26:09;;;;;;;8.77;5.07;;;7.80;46.40;;;;;;5063828;28;20477;-74
2023/01/09 00:28:36;;;;;;;7.67;4.47;;;7.80;46.50;;;;;;5068288;28;20465;-73
2023/01/09 00:31:05;;;;;;;7.73;4.30;;;7.80;46.70;;;;;;5067002;28;20877;-74
2023/01/09 00:33:33;;;;;;;6.93;4.07;;;7.80;46.50;;;;;;5062452;28;20464;-74
2023/01/09 00:36:02;;;;;;;7.50;4.40;;;7.80;46.60;;;;;;5064999;28;20468;-74
2023/01/09 00:38:29;;;;;;;9.57;5.20;;;7.80;46.40;;;;;;5062753;28;20464;-74
2023/01/09 00:40:56;;;;;;;8.20;5.03;;;7.90;46.30;;;;;;5065421;28;20845;-74
2023/01/09 00:43:28;;;;;;;10.00;5.77;;;7.90;46.10;;;;;;5066450;28;20461;-73
2023/01/09 00:45:54;;;;;;;9.63;5.00;;;7.90;46.20;;;;;;5064193;28;20839;-73
2023/01/09 00:48:25;;;;;;;7.17;3.70;;;7.90;46.20;;;;;;5068107;28;20472;-74
2023/01/09 00:50:53;;;;;;;11.10;3.53;;;8.00;46.20;;;;;;5062902;28;20569;-72
2023/01/09 00:53:23;;;;;;;8.13;3.73;;;8.00;46.30;;;;;;5062167;28;20465;-73
2023/01/09 00:55:50;;;;;;;7.33;3.60;;;8.00;46.20;;;;;;5059536;28;20457;-73
2023/01/09 00:58:18;;;;;;;6.17;3.70;;;8.00;46.30;;;;;;5063500;28;20453;-74
2023/01/09 01:00:44;;;;;;;6.50;3.57;;;8.00;46.20;;;;;;5066664;28;20473;-76
2023/01/09 01:03:11;;;;;;;8.00;4.13;;;8.00;46.30;;;;;;5063830;28;20488;-74
2023/01/09 01:08:23;;;;;;;8.27;4.20;;;8.00;46.50;;;;;;5063573;28;20485;-74
2023/01/09 01:10:50;;;;;;;7.50;4.03;;;8.00;46.40;;;;;;5066603;28;20466;-73
2023/01/09 01:13:17;;;;;;;7.50;3.90;;;8.00;46.50;;;;;;5064036;28;20474;-74
2023/01/09 01:15:45;;;;;;;7.20;4.17;;;8.00;46.20;;;;;;5067581;28;20457;-74
2023/01/09 01:18:13;;;;;;;7.67;3.90;;;8.10;46.40;;;;;;5067171;28;20461;-74
2023/01/09 01:20:41;;;;;;;8.80;3.70;;;8.10;46.50;;;;;;5065148;28;20461;-73
2023/01/09 01:23:07;;;;;;;6.30;3.67;;;8.10;46.40;;;;;;5059454;28;20483;-74
2023/01/09 01:25:37;;;;;;;5.87;2.90;;;8.00;46.40;;;;;;5061275;28;20534;-74
2023/01/09 01:28:05;;;;;;;5.83;2.67;;;8.00;46.60;;;;;;5065912;28;20563;-73
2023/01/09 01:30:31;;;;;;;6.47;3.10;;;8.00;46.60;;;;;;5062754;28;20813;-73
2023/01/09 01:32:59;;;;;;;6.80;3.20;;;8.00;46.60;;;;;;5065331;28;20511;-74
2023/01/09 01:35:26;;;;;;;6.93;3.10;;;8.00;46.80;;;;;;5065411;28;20814;-73
2023/01/09 01:37:53;;;;;;;7.30;3.00;;;8.10;46.60;;;;;;5061685;28;20457;-74
2023/01/09 01:40:20;;;;;;;5.40;2.37;;;8.00;46.40;;;;;;5065149;28;20453;-73
2023/01/09 01:42:51;;;;;;;6.20;2.67;;;8.10;46.40;;;;;;5063128;28;20857;-74
2023/01/09 01:45:19;;;;;;;8.13;3.40;;;8.10;46.50;;;;;;5060065;28;20477;-74
2023/01/09 01:47:54;;;;;;;5.80;2.83;;;8.10;46.60;;;;;;5066292;28;20465;-74
2023/01/09 01:50:27;;;;;;;6.00;2.97;;;8.10;46.50;;;;;;5064173;28;20462;-74
2023/01/09 01:53:00;;;;;;;5.53;2.37;;;8.00;46.50;;;;;;5058011;28;20988;-74
2023/01/09 01:55:27;;;;;;;5.27;2.40;;;8.00;46.90;;;;;;5062485;28;20465;-74
2023/01/09 01:57:59;;;;;;;4.80;2.20;;;8.00;46.90;;;;;;5063051;28;20454;-74
2023/01/09 02:00:29;;;;;;;5.13;2.37;;;8.00;46.80;;;;;;5063219;28;20460;-74
2023/01/09 02:02:56;;;;;;;4.80;1.80;;;8.10;46.60;;;;;;5063889;28;20477;-74
2023/01/09 02:05:23;;;;;;;5.83;2.53;;;8.10;46.70;;;;;;5064176;28;21023;-73
2023/01/09 02:07:50;;;;;;;5.40;2.23;;;8.00;46.70;;;;;;5066657;28;20830;-74
2023/01/09 02:10:17;;;;;;;5.30;2.20;;;8.10;46.70;;;;;;5065340;28;20949;-74
2023/01/09 02:12:44;;;;;;;5.93;2.30;;;8.10;46.70;;;;;;5066111;28;20485;-74
2023/01/09 02:15:14;;;;;;;4.73;1.90;;;8.10;46.50;;;;;;5063885;28;20968;-74
2023/01/09 02:18:31;;;;;;;5.00;2.13;;;8.10;46.60;;;;;;5062863;28;20453;-74
2023/01/09 02:21:00;;;;;;;4.43;1.83;;;8.10;46.50;;;;;;5065019;28;20984;-74
2023/01/09 02:24:12;;;;;;;5.13;2.17;;;8.10;46.60;;;;;;5057343;28;20533;-75
2023/01/09 02:27:04;;;;;;;5.53;2.20;;;8.00;47.00;;;;;;5064274;28;20483;-74
2023/01/09 02:30:13;;;;;;;5.20;1.80;;;8.00;46.80;;;;;;5061378;28;20468;-74
2023/01/09 02:32:59;;;;;;;5.03;2.00;;;7.90;47.00;;;;;;5057425;28;21021;-74
2023/01/09 02:35:47;;;;;;;5.50;2.00;;;7.90;47.00;;;;;;5061592;28;20460;-73
2023/01/09 02:38:22;;;;;;;4.13;1.47;;;7.90;46.90;;;;;;5059201;28;20480;-73
2023/01/09 02:40:56;;;;;;;5.10;1.73;;;7.90;46.90;;;;;;5059129;28;20460;-74
2023/01/09 02:43:23;;;;;;;4.30;1.40;;;7.90;46.70;;;;;;5063554;28;20450;-73
2023/01/09 02:45:49;;;;;;;4.47;1.80;;;8.00;46.30;;;;;;5064421;28;20488;-74
2023/01/09 02:48:18;;;;;;;5.43;1.73;;;8.00;46.30;;;;;;5064566;28;20461;-74
2023/01/09 02:50:51;;;;;;;4.90;2.10;;;8.00;46.00;;;;;;5063266;28;20475;-75
2023/01/09 02:53:50;;;;;;;5.23;2.03;;;8.10;45.90;;;;;;5063528;28;20457;-75
2023/01/09 02:56:31;;;;;;;4.60;1.50;;;8.10;46.00;;;;;;5056870;28;20494;-74
2023/01/09 02:59:15;;;;;;;4.13;1.47;;;8.10;45.60;;;;;;5059393;28;20965;-74
2023/01/09 03:01:52;;;;;;;4.80;2.10;;;8.20;45.90;;;;;;5059844;28;20495;-75
2023/01/09 03:04:27;;;;;;;4.03;1.40;;;8.20;45.20;;;;;;5059888;28;20457;-74
2023/01/09 03:07:00;;;;;;;4.97;1.60;;;8.20;45.10;;;;;;5059310;28;20484;-75
2023/01/09 03:09:30;;;;;;;5.23;1.93;;;8.20;45.10;;;;;;5066687;28;20480;-75
2023/01/09 03:12:02;;;;;;;5.00;1.90;;;8.20;44.90;;;;;;5073975;22;20484;-68
2023/01/09 03:14:31;;;;;;;4.70;1.63;;;8.30;44.90;;;;;;4986347;28;20566;-66
2023/01/09 03:17:02;;;;;;;4.20;1.47;;;8.30;44.70;;;;;;4992633;28;20457;-66
2023/01/09 03:19:33;;;;;;;4.90;1.97;;;8.30;44.60;;;;;;4989804;28;20457;-68
2023/01/09 03:22:00;;;;;;;5.00;1.90;;;8.30;44.40;;;;;;4989704;28;20467;-68
2023/01/09 03:24:27;;;;;;;9.63;2.33;;;8.30;44.30;;;;;;4986730;28;20994;-67
2023/01/09 03:26:54;;;;;;;5.20;2.40;;;8.30;44.30;;;;;;4984890;28;20595;-66
2023/01/09 03:29:21;;;;;;;5.63;2.60;;;8.30;44.30;;;;;;4988571;28;20468;-66
2023/01/09 03:31:48;;;;;;;7.30;3.80;;;8.40;44.30;;;;;;4987386;28;21008;-65
2023/01/09 03:34:14;;;;;;;6.63;3.50;;;8.40;44.00;;;;;;4988829;28;20489;-66
2023/01/09 03:36:43;;;;;;;7.00;3.87;;;8.40;44.10;;;;;;4990023;28;20460;-66
2023/01/09 03:39:09;;;;;;;6.73;3.70;;;8.40;44.00;;;;;;4987799;28;20465;-65
2023/01/09 03:41:36;;;;;;;6.60;3.70;;;8.40;44.20;;;;;;4985950;28;20468;-68
2023/01/09 03:44:03;;;;;;;7.27;3.83;;;8.40;44.20;;;;;;4987808;28;20507;-67
2023/01/09 03:46:30;;;;;;;7.40;4.30;;;8.30;44.30;;;;;;4987848;28;20488;-66
2023/01/09 03:48:56;;;;;;;7.67;5.00;;;8.40;44.30;;;;;;4986245;28;20456;-65
2023/01/09 03:51:23;;;;;;;7.70;4.97;;;8.30;44.10;;;;;;4988699;28;20499;-67
2023/01/09 03:53:51;;;;;;;8.20;5.20;;;8.40;44.00;;;;;;4988570;28;20480;-67
2023/01/09 03:56:18;;;;;;;8.70;5.67;;;8.40;44.00;;;;;;4989781;28;20461;-66
2023/01/09 03:58:45;;;;;;;8.13;5.17;;;8.40;44.10;;;;;;4988092;28;20491;-65
2023/01/09 04:01:12;;;;;;;8.30;5.00;;;8.30;44.10;;;;;;4989017;28;20472;-66
2023/01/09 04:03:39;;;;;;;8.90;4.90;;;8.30;44.10;;;;;;4987938;28;20481;-66
2023/01/09 04:06:06;;;;;;;8.53;5.47;;;8.30;44.20;;;;;;4988624;28;20476;-66
2023/01/09 04:08:33;;;;;;;7.80;4.93;;;8.30;44.30;;;;;;4988044;28;20475;-66
2023/01/09 04:11:01;;;;;;;8.53;5.33;;;8.30;44.40;;;;;;4989537;28;20468;-65
2023/01/09 04:13:28;;;;;;;8.57;5.13;;;8.30;44.40;;;;;;4988227;28;20492;-65
2023/01/09 04:15:55;;;;;;;8.67;5.70;;;8.30;44.30;;;;;;4987565;28;20456;-65
2023/01/09 04:18:21;;;;;;;10.70;5.73;;;8.30;44.30;;;;;;4983370;28;20461;-65
2023/01/09 04:20:48;;;;;;;8.37;5.13;;;8.30;44.60;;;;;;4980631;28;20461;-65
2023/01/09 04:23:15;;;;;;;9.03;5.77;;;8.30;44.70;;;;;;4977507;28;20489;-66
2023/01/09 04:25:42;;;;;;;9.67;5.70;;;8.20;44.70;;;;;;4986939;28;20847;-65
2023/01/09 04:28:10;;;;;;;9.93;6.10;;;8.30;44.80;;;;;;4988987;28;20465;-66
2023/01/09 04:30:37;;;;;;;7.50;4.37;;;8.20;44.90;;;;;;4988209;28;20480;-65
2023/01/09 04:33:04;;;;;;;9.63;5.37;;;8.30;45.00;;;;;;4986002;28;20488;-65
2023/01/09 04:35:31;;;;;;;7.50;4.83;;;8.30;45.10;;;;;;4983854;28;20466;-65
2023/01/09 04:37:59;;;;;;;9.87;4.77;;;8.30;45.30;;;;;;4986986;28;20551;-66
2023/01/09 04:40:26;;;;;;;12.37;4.93;;;8.30;45.20;;;;;;4988663;28;21011;-67
2023/01/09 04:42:53;;;;;;;8.90;5.70;;;8.40;45.30;;;;;;4986742;28;20500;-66
2023/01/09 04:45:21;;;;;;;5.60;2.87;;;8.40;45.60;;;;;;4989406;28;20461;-65
2023/01/09 04:47:47;;;;;;;4.00;1.20;;;8.30;43.60;;;;;;4984018;28;20469;-65
2023/01/09 04:50:14;;;;;;;4.70;1.27;;;8.30;42.00;;;;;;4988470;28;20464;-65
2023/01/09 04:52:41;;;;;;;5.50;0.90;;;8.20;42.00;;;;;;4983955;28;20480;-66
2023/01/09 04:55:09;;;;;;;5.70;0.80;;;8.10;41.60;;;;;;4985667;28;20965;-65
2023/01/09 04:57:36;;;;;;;4.07;0.80;;;8.10;42.20;;;;;;4986515;28;20461;-65
2023/01/09 05:00:08;;;;;;;3.50;0.70;;;8.00;42.50;;;;;;4985493;28;20466;-65
2023/01/09 05:02:36;;;;;;;3.83;0.70;;;8.00;42.50;;;;;;4979360;28;21265;-65
2023/01/09 05:05:04;;;;;;;3.80;0.70;;;7.90;42.60;;;;;;4981699;28;20500;-66
2023/01/09 05:07:31;;;;;;;3.93;0.90;;;7.90;42.60;;;;;;4982795;28;20508;-68
2023/01/09 05:09:58;;;;;;;3.93;1.07;;;7.90;42.50;;;;;;4984748;28;20496;-69
2023/01/09 05:12:24;;;;;;;3.93;1.10;;;8.00;42.60;;;;;;4985972;28;20495;-68
2023/01/09 05:14:51;;;;;;;5.10;1.27;;;8.00;42.70;;;;;;4986103;28;20467;-67
2023/01/09 05:17:18;;;;;;;4.40;1.60;;;8.00;42.80;;;;;;4985885;28;20465;-69
2023/01/09 05:19:46;;;;;;;4.80;1.80;;;8.00;43.20;;;;;;4987842;28;20471;-67
2023/01/09 05:22:13;;;;;;;4.57;1.30;;;8.00;43.70;;;;;;4986314;28;20483;-67
2023/01/09 05:24:40;;;;;;;4.60;1.70;;;8.10;44.10;;;;;;4986298;28;20965;-68
2023/01/09 05:27:07;;;;;;;4.27;0.80;;;8.00;44.20;;;;;;4986290;28;20477;-68
2023/01/09 05:29:33;;;;;;;4.33;0.67;;;8.10;42.60;;;;;;4988228;28;20468;-68
2023/01/09 05:32:00;;;;;;;3.60;0.57;;;7.90;39.50;;;;;;4985167;28;20591;-68
2023/01/09 05:34:27;;;;;;;3.63;0.63;;;7.80;38.50;;;;;;4983018;28;20457;-69
2023/01/09 05:36:55;;;;;;;3.37;0.53;;;7.70;38.60;;;;;;4987049;28;20464;-68
2023/01/09 05:39:22;;;;;;;3.33;0.50;;;7.60;39.60;;;;;;4987394;28;20472;-70
2023/01/09 05:41:49;;;;;;;3.93;0.90;;;7.60;40.30;;;;;;4984366;28;20832;-67
2023/01/09 05:44:15;;;;;;;3.60;0.63;;;7.50;41.10;;;;;;4983557;28;20813;-68
2023/01/09 05:46:42;;;;;;;3.80;0.70;;;7.50;41.60;;;;;;4987601;28;20472;-68
2023/01/09 05:49:09;;;;;;;4.10;0.60;;;7.50;42.10;;;;;;4984198;28;20488;-68
2023/01/09 05:51:36;;;;;;;3.97;0.73;;;7.40;42.10;;;;;;4986642;28;20750;-68
2023/01/09 05:54:06;;;;;;;3.60;0.50;;;7.40;42.40;;;;;;4985202;28;20527;-68
2023/01/09 05:56:33;;;;;;;3.60;0.60;;;7.40;42.30;;;;;;4985440;28;20453;-68
2023/01/09 05:58:59;;;;;;;3.50;0.60;;;7.40;41.20;;;;;;4987053;28;20469;-67
2023/01/09 06:01:26;;;;;;;3.50;0.60;;;7.40;41.40;;;;;;4986613;28;20473;-69
2023/01/09 06:03:53;;;;;;;4.03;0.80;;;7.40;41.40;;;;;;4986748;28;20481;-68
2023/01/09 06:06:19;;;;;;;3.60;0.60;;;7.30;41.60;;;;;;4983311;28;21027;-68
2023/01/09 06:08:46;;;;;;;3.80;0.60;;;7.30;41.80;;;;;;4984886;28;20961;-68
2023/01/09 06:11:14;;;;;;;3.60;0.70;;;7.30;41.60;;;;;;4984598;28;20462;-68
2023/01/09 06:13:41;;;;;;;3.50;0.60;;;7.20;41.60;;;;;;4981502;28;20955;-68
2023/01/09 06:16:08;;;;;;;3.47;0.63;;;7.20;41.50;;;;;;4987779;28;20464;-68
2023/01/09 06:18:35;;;;;;;4.07;0.70;;;7.20;41.30;;;;;;4986546;28;20480;-68
2023/01/09 06:21:01;;;;;;;3.30;0.40;;;7.20;41.30;;;;;;4985456;28;21001;-67
2023/01/09 06:23:28;;;;;;;3.70;0.60;;;7.10;41.50;;;;;;4985187;28;20493;-68
2023/01/09 06:25:55;;;;;;;3.30;0.50;;;7.10;41.30;;;;;;4986531;28;20465;-68
2023/01/09 06:28:23;;;;;;;4.90;0.73;;;7.10;41.50;;;;;;4985311;28;20464;-68
2023/01/09 06:30:51;;;;;;;3.93;0.70;;;7.00;41.60;;;;;;4984258;28;20469;-68
2023/01/09 06:33:18;;;;;;;3.50;0.50;;;7.00;41.60;;;;;;4986758;28;20494;-69
2023/01/09 06:35:44;;;;;;;4.53;0.60;;;7.00;41.40;;;;;;4986109;28;20468;-68
2023/01/09 06:38:12;;;;;;;3.60;0.67;;;7.00;41.40;;;;;;4988004;28;21011;-68
2023/01/09 06:40:38;;;;;;;3.73;0.80;;;7.00;41.00;;;;;;4985604;28;20511;-70
2023/01/09 06:43:05;;;;;;;3.40;0.60;;;6.90;41.00;;;;;;4984490;28;20484;-67
2023/01/09 06:45:34;;;;;;;3.70;0.80;;;6.90;40.90;;;;;;4985652;28;20461;-68
2023/01/09 06:48:00;;;;;;;4.17;1.20;;;6.90;40.90;;;;;;4987697;28;20483;-69
2023/01/09 06:50:27;;;;;;;3.90;0.80;;;6.90;40.80;;;;;;4985995;28;20827;-69
2023/01/09 06:52:54;;;;;;;3.50;0.60;;;6.80;40.60;;;;;;4986150;28;20473;-69
2023/01/09 06:55:21;;;;;;;4.60;0.70;;;6.80;40.60;;;;;;4986895;28;20460;-70
2023/01/09 06:57:48;;;;;;;3.93;0.70;;;6.80;39.80;;;;;;4988039;28;20836;-68
2023/01/09 07:00:15;;;;;;;3.60;0.63;;;6.80;39.70;;;;;;4984188;28;20992;-69
2023/01/09 07:02:43;;;;;;;3.50;0.60;;;6.80;39.50;;;;;;4987138;28;20467;-68
2023/01/09 07:05:10;;;;;;;3.30;0.60;;;6.80;39.60;;;;;;4986534;28;20972;-68
2023/01/09 07:07:37;;;;;;;3.40;0.50;;;6.70;39.70;;;;;;4984535;28;20563;-68
2023/01/09 07:10:05;;;;;;;3.50;0.60;;;6.70;39.70;;;;;;4985282;28;20965;-69
2023/01/09 07:12:32;;;;;;;4.07;0.97;;;6.70;40.00;;;;;;4987077;28;20499;-68
2023/01/09 07:14:59;;;;;;;3.80;0.67;;;6.60;40.20;;;;;;4985898;28;20464;-69
2023/01/09 07:17:25;;;;;;;4.57;0.70;;;6.60;40.10;;;;;;4986278;28;20457;-70
2023/01/09 07:19:53;;;;;;;3.70;0.63;;;6.60;39.90;;;;;;4987710;28;20460;-68
2023/01/09 07:22:20;;;;;;;3.70;0.70;;;6.60;39.60;;;;;;4982408;28;20845;-68
2023/01/09 07:24:47;;;;;;;4.00;0.50;;;6.60;39.50;;;;;;4985546;28;20465;-68
2023/01/09 07:27:14;;;;;;;4.10;0.80;;;6.60;39.60;;;;;;4986744;28;20489;-68
2023/01/09 07:29:40;;;;;;;4.27;0.60;;;6.50;39.70;;;;;;4986981;28;20461;-69
2023/01/09 07:32:07;;;;;;;4.23;0.57;;;6.50;39.60;;;;;;4983803;28;20484;-70
2023/01/09 07:34:34;;;;;;;3.30;0.57;;;6.50;39.60;;;;;;4986925;28;20465;-69
2023/01/09 07:37:02;;;;;;;3.50;0.70;;;6.40;39.60;;;;;;4985699;28;20493;-68
2023/01/09 07:39:29;;;;;;;3.30;0.50;;;6.40;39.50;;;;;;4982984;28;20471;-67
2023/01/09 07:41:56;;;;;;;3.90;0.70;;;6.40;39.40;;;;;;4987122;28;20461;-67
2023/01/09 07:44:23;;;;;;;4.03;0.90;;;6.40;39.30;;;;;;4983848;28;20465;-69
2023/01/09 07:46:49;;;;;;;3.47;0.70;;;6.50;39.40;;;;;;4986824;28;20484;-67
2023/01/09 07:49:16;;;;;;;3.80;0.80;;;6.50;39.50;;;;;;4987030;28;20456;-68
2023/01/09 07:51:43;;;;;;;3.50;0.63;;;6.50;39.50;;;;;;4986610;28;20469;-68
2023/01/09 07:54:12;;;;;;;3.97;0.60;;;6.60;39.20;;;;;;4988358;28;20546;-68
2023/01/09 07:56:39;;;;;;;4.17;0.73;;;6.70;39.30;;;;;;4989157;28;20460;-68
2023/01/09 07:59:06;;;;;;;3.43;0.67;;;6.70;39.90;;;;;;4987839;28;20463;-69
2023/01/09 08:01:33;;;;;;;4.13;1.13;;;6.80;39.30;;;;;;4988899;28;20835;-68
2023/01/09 08:04:00;;;;;;;4.17;0.57;;;6.80;39.30;;;;;;4989805;28;21039;-70
2023/01/09 08:06:26;;;;;;;3.90;0.70;;;6.90;39.20;;;;;;4990280;28;21025;-68
2023/01/09 08:08:53;;;;;;;3.30;0.60;;;6.90;38.80;;;;;;4990478;28;20456;-69
2023/01/09 08:11:21;;;;;;;3.80;0.70;;;6.90;38.60;;;;;;4986377;28;20465;-67
2023/01/09 08:13:48;;;;;;;3.80;0.80;;;7.00;38.40;;;;;;4989125;28;21104;-70
2023/01/09 08:16:15;;;;;;;3.70;0.80;;;7.00;38.20;;;;;;4987243;28;20480;-67
2023/01/09 08:18:42;;;;;;;3.50;0.60;;;6.90;38.30;;;;;;4987241;28;20467;-67
2023/01/09 08:21:10;;;;;;;5.17;0.87;;;6.90;38.00;;;;;;4985902;28;20468;-68
2023/01/09 08:23:36;;;;;;;3.50;0.70;;;6.90;37.90;;;;;;4988810;28;20491;-68
2023/01/09 08:26:03;;;;;;;3.80;0.60;;;6.90;37.80;;;;;;4988360;28;20457;-69
2023/01/09 08:28:32;;;;;;;5.17;0.67;;;6.90;37.50;;;;;;4988986;28;20480;-67
2023/01/09 08:30:59;;;;;;;3.60;0.70;;;6.90;37.30;;;;;;4982479;28;20465;-68
2023/01/09 08:33:26;;;;;;;4.47;0.70;;;6.90;37.30;;;;;;4985867;28;20483;-68
2023/01/09 08:35:52;;;;;;;3.73;0.50;;;6.90;36.80;;;;;;4988860;28;20456;-68
2023/01/09 08:38:20;;;;;;;4.00;0.70;;;6.90;36.60;;;;;;4989933;28;20452;-68
2023/01/09 08:40:47;;;;;;;3.70;0.50;;;6.90;36.60;;;;;;4988683;28;20469;-68
2023/01/09 08:48:47;;;;;;;3.97;0.70;;;7.00;36.20;;;;;;4986057;28;20847;-69
2023/01/09 08:51:14;;;;;;;5.17;1.40;;;7.00;35.80;;;;;;4988010;28;20469;-69
2023/01/09 08:53:41;;;;;;;3.70;0.77;;;7.00;35.30;;;;;;4984990;28;20489;-70
2023/01/09 08:56:09;;;;;;;3.47;0.70;;;7.00;35.40;;;;;;4988653;28;20467;-70
2023/01/09 08:58:36;;;;;;;5.67;1.53;;;7.10;35.30;;;;;;4989279;28;20461;-68
2023/01/09 09:01:07;;;;;;;6.77;1.10;;;7.10;34.70;;;;;;4981817;28;20556;-68
2023/01/09 09:03:34;;;;;;;5.73;1.70;;;7.20;34.90;;;;;;4986242;28;20484;-68
2023/01/09 09:06:01;;;;;;;4.70;0.83;;;7.20;34.40;;;;;;4987745;28;20815;-68
2023/01/09 09:08:27;;;;;;;5.83;1.10;;;7.30;33.50;;;;;;4987980;28;20996;-68
2023/01/09 09:10:56;;;;;;;6.23;0.90;;;7.40;32.90;;;;;;4989823;28;20483;-68
2023/01/09 09:13:22;;;;;;;4.43;0.97;;;7.40;33.30;;;;;;5007311;22;20965;-70
2023/01/09 09:15:49;;;;;;;6.53;1.00;;;7.50;33.30;;;;;;5024250;28;20470;-71
2023/01/09 09:18:17;;;;;;;4.23;0.87;;;7.60;33.00;;;;;;5023559;28;20463;-70
2023/01/09 09:20:44;;;;;;;6.73;1.30;;;7.70;32.80;;;;;;5026377;28;20463;-70
2023/01/09 09:23:11;;;;;;;8.83;1.20;;;7.90;32.40;;;;;;5024811;28;20511;-73
2023/01/09 09:25:38;;;;;;;5.50;1.00;;;8.10;31.40;;;;;;5019363;28;20462;-71
2023/01/09 09:28:05;;;;;;;4.07;0.90;;;8.20;31.10;;;;;;5021034;28;20483;-70
2023/01/09 09:30:32;;;;;;;5.23;1.10;;;8.30;30.60;;;;;;5021885;28;20967;-71
2023/01/09 09:32:59;;;;;;;8.37;1.60;;;8.30;29.90;;;;;;5020368;28;20456;-70
2023/01/09 09:35:27;;;;;;;5.57;1.10;;;8.30;30.30;;;;;;5026083;28;20501;-72
2023/01/09 09:37:56;;;;;;;7.67;1.00;;;8.40;30.00;;;;;;5016523;28;20447;-71
2023/01/09 09:40:35;;;;;;;7.70;1.17;;;8.40;30.20;;;;;;5026087;28;20459;-71
2023/01/09 09:46:17;;;;;;;6.27;0.97;;;8.70;29.80;;;;;;5020412;28;20454;-72
2023/01/09 09:48:51;;;;;;;4.53;0.77;;;8.70;29.90;;;;;;5021098;28;20478;-70
2023/01/09 09:51:55;;;;;;;4.33;0.80;;;8.90;30.10;;;;;;5020776;28;21180;-71
2023/01/09 09:54:27;;;;;;;4.57;1.00;;;9.30;29.30;;;;;;5021833;28;21021;-71
2023/01/09 09:56:57;;;;;;;4.27;1.57;;;9.60;28.30;;;;;;5021696;28;21274;-71
2023/01/09 09:59:28;;;;;;;3.87;0.80;;;9.80;27.50;;;;;;5022875;28;20470;-72
2023/01/09 10:01:58;;;;;;;4.37;1.10;;;10.00;27.50;;;;;;5024812;28;20483;-71
2023/01/09 10:04:28;;;;;;;5.83;1.10;;;10.30;27.30;;;;;;5024716;28;20489;-71
2023/01/09 10:07:00;;;;;;;5.83;1.07;;;10.50;25.60;;;;;;5021803;28;21009;-71
2023/01/09 10:09:36;;;;;;;7.37;1.10;;;10.40;24.50;;;;;;5020852;28;20458;-71
2023/01/09 10:12:11;;;;;;;4.53;0.80;;;10.40;24.20;;;;;;5022635;28;20464;-71
2023/01/09 10:14:39;;;;;;;5.37;1.23;;;10.20;23.80;;;;;;5023544;28;20487;-71
2023/01/09 10:17:23;;;;;;;3.70;0.97;;;10.10;24.50;;;;;;5026293;28;20459;-71
2023/01/09 10:20:20;;;;;;;3.83;0.60;;;10.10;24.50;;;;;;5022161;28;21017;-71
2023/01/09 10:22:57;;;;;;;3.80;0.70;;;10.20;24.60;;;;;;5021775;28;20455;-71
2023/01/09 10:25:31;;;;;;;6.13;1.20;;;10.30;23.80;;;;;;5024294;28;20454;-71
2023/01/09 10:28:19;;;;;;;4.60;0.93;;;10.30;24.00;;;;;;5022688;28;20474;-71
2023/01/09 10:30:50;;;;;;;3.40;0.60;;;10.50;24.30;;;;;;5019258;28;20467;-72
2023/01/09 10:33:39;;;;;;;3.80;0.80;;;10.90;25.00;;;;;;5022742;28;20475;-71
2023/01/09 10:36:28;;;;;;;5.70;1.20;;;11.30;22.70;;;;;;5022904;28;20467;-71
2023/01/09 10:39:03;;;;;;;5.20;0.77;;;11.60;20.70;;;;;;5022729;28;20546;-72
2023/01/09 10:41:33;;;;;;;3.63;0.60;;;11.50;18.80;;;;;;5025632;28;20478;-72
2023/01/09 10:44:07;;;;;;;6.73;0.90;;;11.30;19.50;;;;;;5025743;28;20479;-71
2023/01/09 10:46:38;;;;;;;4.70;0.70;;;11.10;20.00;;;;;;5022732;28;20482;-71
2023/01/09 10:49:11;;;;;;;4.57;1.07;;;10.90;20.20;;;;;;5025198;28;21251;-71
2023/01/09 10:51:45;;;;;;;4.47;0.90;;;10.80;20.80;;;;;;5023793;28;20463;-71
2023/01/09 10:54:17;;;;;;;3.60;0.70;;;10.70;21.30;;;;;;5019512;28;21041;-71
2023/01/09 10:56:50;;;;;;;6.00;0.70;;;10.60;21.70;;;;;;5026254;28;20496;-71
2023/01/09 10:59:17;;;;;;;4.10;0.80;;;10.50;21.20;;;;;;5025788;28;20451;-71
2023/01/09 11:01:44;;;;;;;8.83;1.03;;;10.50;21.30;;;;;;5023202;28;21044;-72
2023/01/09 11:04:20;;;;;;;6.67;1.53;;;10.40;21.50;;;;;;5020614;28;20489;-70
2023/01/09 11:06:50;;;;;;;6.07;1.17;;;10.30;21.70;;;;;;5021356;28;21029;-71
2023/01/09 11:09:18;;;;;;;4.20;0.83;;;10.20;21.60;;;;;;5020199;28;20482;-72
2023/01/09 11:11:45;;;;;;;5.90;1.17;;;10.20;21.90;;;;;;5026704;28;20467;-71
2023/01/09 11:14:17;;;;;;;5.70;0.70;;;10.10;21.90;;;;;;5023763;28;20993;-72
2023/01/09 11:16:54;;;;;;;4.30;0.87;;;10.10;22.40;;;;;;5021316;28;20509;-70
2023/01/09 11:19:22;;;;;;;6.20;1.37;;;10.10;22.40;;;;;;5025470;28;20461;-71
2023/01/09 11:21:49;;;;;;;5.07;1.13;;;10.10;22.20;;;;;;5022614;28;20455;-71
2023/01/09 11:24:30;;;;;;;7.77;1.57;;;10.10;22.70;;;;;;5021415;28;20482;-71
2023/01/09 11:27:22;;;;;;;4.70;0.90;;;10.20;22.10;;;;;;5026492;28;20486;-71
2023/01/09 11:30:25;;;;;;;5.67;0.87;;;10.20;22.20;;;;;;5027798;28;20486;-71
2023/01/09 11:32:52;;;;;;;4.73;0.80;;;10.30;21.20;;;;;;5027949;28;20475;-72
2023/01/09 11:35:22;;;;;;;3.93;0.60;;;10.20;20.60;;;;;;5031507;28;20486;-72
2023/01/09 11:37:59;;;;;;;5.07;0.67;;;10.20;21.00;;;;;;5029577;28;20490;-71
2023/01/09 11:40:29;;;;;;;4.70;0.80;;;10.30;21.40;;;;;;5023325;28;20482;-71
2023/01/09 11:43:14;;;;;;;5.83;1.40;;;10.70;21.70;;;;;;5027049;28;20584;-71
2023/01/09 11:45:46;;;;;;;5.00;0.80;;;11.20;19.80;;;;;;5025579;28;20469;-72
2023/01/09 11:48:31;;;;;;;4.63;0.87;;;11.30;18.40;;;;;;5027034;28;20483;-72
2023/01/09 11:51:00;;;;;;;4.10;0.87;;;11.80;17.60;;;;;;5021587;28;20486;-71
2023/01/09 11:53:28;;;;;;;4.13;0.93;;;11.70;17.20;;;;;;5023092;28;20470;-71
2023/01/09 11:56:00;;;;;;;5.10;0.73;;;11.40;17.20;;;;;;5027531;28;20459;-71
2023/01/09 11:58:31;;;;;;;7.17;0.90;;;11.10;17.90;;;;;;5020368;28;20529;-72
2023/01/09 12:01:06;;;;;;;9.83;0.90;;;10.90;18.60;;;;;;5020424;28;20513;-71
2023/01/09 12:04:02;;;;;;;5.97;2.23;;;10.70;18.90;;;;;;5026335;28;20490;-72
2023/01/09 12:06:41;;;;;;;6.33;1.43;;;10.60;19.50;;;;;;5023275;28;20547;-71
2023/01/09 12:09:11;;;;;;;5.70;1.23;;;10.50;19.40;;;;;;5021493;28;20511;-70
2023/01/09 12:11:47;;;;;;;4.83;1.00;;;10.30;20.00;;;;;;5028543;28;20461;-71
2023/01/09 12:14:42;;;;;;;5.10;1.43;;;10.20;20.30;;;;;;5026884;28;20478;-71
2023/01/09 12:17:43;;;;;;;4.50;1.00;;;10.20;21.10;;;;;;5025314;28;20463;-71
2023/01/09 12:20:37;;;;;;;6.40;1.30;;;10.10;20.60;;;;;;5025811;28;20458;-71
2023/01/09 12:23:28;;;;;;;4.13;0.90;;;10.10;21.00;;;;;;5026502;28;20475;-70
2023/01/09 12:26:04;;;;;;;6.00;1.50;;;10.00;21.40;;;;;;5025453;28;20471;-71
2023/01/09 12:28:59;;;;;;;8.90;1.23;;;9.90;21.70;;;;;;5028581;28;20510;-70
2023/01/09 12:31:41;;;;;;;4.70;0.87;;;9.80;21.70;;;;;;5024984;28;20473;-71
2023/01/09 12:34:24;;;;;;;4.40;1.00;;;9.70;21.80;;;;;;5027307;28;20479;-73
2023/01/09 12:36:58;;;;;;;4.03;0.70;;;9.60;22.60;;;;;;5024997;28;20980;-72
2023/01/09 12:39:34;;;;;;;7.90;0.97;;;9.50;22.60;;;;;;5025394;28;20463;-72
2023/01/09 12:42:19;;;;;;;6.50;1.10;;;9.40;22.50;;;;;;5025633;28;20468;-71
2023/01/09 12:44:52;;;;;;;4.47;0.90;;;9.30;23.30;;;;;;5022766;28;20471;-71
2023/01/09 12:47:48;;;;;;;5.20;1.00;;;9.30;23.80;;;;;;5026422;28;20459;-71
2023/01/09 12:50:53;;;;;;;4.83;1.30;;;9.20;23.60;;;;;;5024688;28;20463;-71
2023/01/09 12:53:24;;;;;;;4.80;0.90;;;9.20;22.90;;;;;;5024658;28;21216;-72
2023/01/09 12:55:59;;;;;;;9.10;2.80;;;9.20;23.60;;;;;;5023653;28;20459;-71
2023/01/09 12:58:33;;;;;;;6.70;2.63;;;9.20;23.20;;;;;;5022246;28;20827;-71
2023/01/09 13:01:06;;;;;;;10.30;2.80;;;9.20;23.50;;;;;;5024277;28;20467;-71
2023/01/09 13:03:37;;;;;;;8.77;2.70;;;9.20;23.40;;;;;;5026516;28;20485;-71
2023/01/09 13:06:07;;;;;;;5.37;1.57;;;9.20;23.50;;;;;;5026577;28;20843;-71
2023/01/09 13:08:39;;;;;;;12.47;1.30;;;9.20;23.30;;;;;;5027698;28;20494;-71
2023/01/09 13:11:11;;;;;;;4.83;0.90;;;9.20;23.60;;;;;;5024401;28;20478;-71
2023/01/09 13:13:44;;;;;;;5.50;1.00;;;9.20;23.50;;;;;;5022991;28;20495;-71
2023/01/09 13:16:16;;;;;;;3.80;0.80;;;9.20;23.60;;;;;;5027910;28;20455;-70
2023/01/09 13:18:47;;;;;;;4.10;1.00;;;9.30;23.20;;;;;;5023191;28;20452;-71
2023/01/09 13:21:14;;;;;;;4.70;1.23;;;9.30;23.40;;;;;;5023834;28;20474;-72
2023/01/09 13:23:48;;;;;;;5.13;0.90;;;9.20;23.40;;;;;;5026720;28;20486;-71
2023/01/09 13:26:20;;;;;;;7.73;1.13;;;9.20;23.50;;;;;;5025604;28;20458;-71